Terminal Aerodrome Forecast
Issued by NWS Atlanta, GA

Home | Current Version | Previous Version | Text Only | Print | Product List | Glossary On
Versions: 1 2 3 4 5 6 7 8 9 10 11 12 13 14 15 16 17 18 19 20 21 22 23 24 25 26 27 28
000
FTUS42 KFFC 291133
TAFAHN
TAF
KAHN 291133Z 2912/3012 03004KT P6SM VCSH FEW030 SCT050 BKN090
     FM291400 01007KT P6SM VCSH SCT060 BKN120
     FM291800 03006KT P6SM SCT060 BKN120
     FM292300 03003KT P6SM SCT080
     FM300500 35003KT P6SM SKC=

USA.gov is the U.S. government's official web portal to all federal, state and local government web resources and services.